createdAt,value
2022-09-09T00:00:25.234Z,20.40
2022-09-09T00:03:18.840Z,20.40
2022-09-09T00:06:12.287Z,20.30
2022-09-09T00:09:05.781Z,20.30
2022-09-09T00:11:57.345Z,20.30
2022-09-09T00:14:50.911Z,20.30
2022-09-09T00:17:43.182Z,20.30
2022-09-09T00:20:36.827Z,20.30
2022-09-09T00:23:27.753Z,20.30
2022-09-09T00:26:20.948Z,20.30
2022-09-09T00:29:24.729Z,20.30
2022-09-09T00:32:15.680Z,20.40
2022-09-09T00:35:06.441Z,20.40
2022-09-09T00:38:02.005Z,20.40
2022-09-09T00:40:53.119Z,20.40
2022-09-09T00:43:42.551Z,20.40
2022-09-09T00:47:02.900Z,20.40
2022-09-09T00:50:01.662Z,20.40
2022-09-09T00:52:56.671Z,20.50
2022-09-09T00:55:50.362Z,20.60
2022-09-09T00:58:38.790Z,20.60
2022-09-09T01:01:27.178Z,20.70
2022-09-09T01:04:18.613Z,20.80
2022-09-09T01:07:14.368Z,20.80
2022-09-09T01:10:08.990Z,20.80
2022-09-09T01:12:58.727Z,20.90
2022-09-09T01:15:48.109Z,20.90
2022-09-09T01:18:38.437Z,20.90
2022-09-09T01:21:34.995Z,21.00
2022-09-09T01:24:27.840Z,21.00
2022-09-09T01:27:26.573Z,21.10
2022-09-09T01:30:16.826Z,21.10
2022-09-09T01:33:05.540Z,21.10
2022-09-09T01:35:57.398Z,21.10
2022-09-09T01:38:49.914Z,21.10
2022-09-09T01:41:39.881Z,21.20
2022-09-09T01:44:33.400Z,21.10
2022-09-09T01:47:23.048Z,21.10
2022-09-09T01:50:22.611Z,21.10
2022-09-09T01:53:11.393Z,21.10
2022-09-09T01:56:09.925Z,21.10
2022-09-09T01:59:13.383Z,21.10
2022-09-09T02:02:12.679Z,21.10
2022-09-09T02:05:17.131Z,21.10
2022-09-09T02:08:08.319Z,21.10
2022-09-09T02:11:09.098Z,21.10
2022-09-09T02:14:05.175Z,21.10
2022-09-09T02:16:56.241Z,21.10
2022-09-09T02:19:51.616Z,21.10
2022-09-09T02:22:50.998Z,21.10
2022-09-09T02:25:41.126Z,21.10
2022-09-09T02:28:38.744Z,21.10
2022-09-09T02:31:27.333Z,21.10
2022-09-09T02:34:21.995Z,21.10
2022-09-09T02:37:12.117Z,21.10
2022-09-09T02:40:03.398Z,21.10
2022-09-09T02:42:53.100Z,21.00
2022-09-09T02:45:46.265Z,21.00
2022-09-09T02:48:40.770Z,21.00
2022-09-09T02:51:34.142Z,21.00
2022-09-09T02:54:29.312Z,21.00
2022-09-09T02:57:21.654Z,21.00
2022-09-09T03:00:13.488Z,20.90
2022-09-09T03:03:02.180Z,20.90
2022-09-09T03:05:50.664Z,20.90
2022-09-09T03:08:39.162Z,20.90
2022-09-09T03:11:29.778Z,20.80
2022-09-09T03:14:22.121Z,20.80
2022-09-09T03:17:11.122Z,20.80
2022-09-09T03:20:07.074Z,20.80
2022-09-09T03:22:55.490Z,20.80
2022-09-09T03:25:49.892Z,20.70
2022-09-09T03:28:43.042Z,20.70
2022-09-09T03:31:32.072Z,20.70
2022-09-09T03:34:21.150Z,20.60
2022-09-09T03:37:09.558Z,20.60
2022-09-09T03:39:58.274Z,20.60
2022-09-09T03:42:46.841Z,20.60
2022-09-09T03:45:36.895Z,20.50
2022-09-09T03:48:25.900Z,20.50
2022-09-09T03:51:16.021Z,20.50
2022-09-09T03:54:06.066Z,20.50
2022-09-09T03:56:54.596Z,20.40
2022-09-09T03:59:44.613Z,20.40
2022-09-09T04:02:34.441Z,20.30
2022-09-09T04:05:22.836Z,20.30
2022-09-09T04:08:12.373Z,20.30
2022-09-09T04:11:02.671Z,20.30
2022-09-09T04:13:51.491Z,20.30
2022-09-09T04:16:44.198Z,20.30
2022-09-09T04:19:34.087Z,20.20
2022-09-09T04:22:23.409Z,20.20
2022-09-09T04:25:11.864Z,20.20
2022-09-09T04:28:00.365Z,20.10
2022-09-09T04:30:49.461Z,20.10
2022-09-09T04:33:40.276Z,20.10
2022-09-09T04:36:31.506Z,20.10
2022-09-09T04:39:22.591Z,20.00
2022-09-09T04:42:11.040Z,20.00
2022-09-09T04:44:59.706Z,20.00
2022-09-09T04:47:48.214Z,20.00
2022-09-09T04:50:36.654Z,20.00
2022-09-09T04:53:27.296Z,20.00
2022-09-09T04:56:17.598Z,19.90
2022-09-09T04:59:13.356Z,19.90
2022-09-09T05:02:08.522Z,19.90
2022-09-09T05:04:57.077Z,19.90
2022-09-09T05:07:46.886Z,19.90
2022-09-09T05:10:39.240Z,19.90
2022-09-09T05:13:28.392Z,19.90
2022-09-09T05:16:16.856Z,19.90
2022-09-09T05:19:08.958Z,19.90
2022-09-09T05:22:05.916Z,19.90
2022-09-09T05:25:02.499Z,19.90
2022-09-09T05:27:52.283Z,19.90
2022-09-09T05:30:41.266Z,19.90
2022-09-09T05:33:29.693Z,20.00
2022-09-09T05:36:20.248Z,20.00
2022-09-09T05:39:12.964Z,20.00
2022-09-09T05:42:02.589Z,20.00
2022-09-09T05:44:55.246Z,20.10
2022-09-09T05:47:43.810Z,20.10
2022-09-09T05:50:35.307Z,20.10
2022-09-09T05:53:23.787Z,20.10
2022-09-09T05:56:15.180Z,20.20
2022-09-09T05:59:05.390Z,20.20
2022-09-09T06:01:55.524Z,20.20
2022-09-09T06:04:50.508Z,20.20
2022-09-09T06:07:42.920Z,20.30
2022-09-09T06:10:31.643Z,20.30
2022-09-09T06:13:19.994Z,20.30
2022-09-09T06:16:09.358Z,20.40
2022-09-09T06:18:59.625Z,20.40
2022-09-09T06:21:51.164Z,20.50
2022-09-09T06:24:39.616Z,20.60
2022-09-09T06:27:29.699Z,20.70
2022-09-09T06:30:19.309Z,20.70
2022-09-09T06:33:07.843Z,20.80
2022-09-09T06:35:58.063Z,20.80
2022-09-09T06:38:47.559Z,20.80
2022-09-09T06:41:37.678Z,21.00
2022-09-09T06:44:32.219Z,21.20
2022-09-09T06:47:25.545Z,21.60
2022-09-09T06:50:13.951Z,22.00
2022-09-09T06:53:03.901Z,22.50
2022-09-09T06:55:52.648Z,23.10
2022-09-09T06:58:43.935Z,23.60
2022-09-09T07:01:36.621Z,23.90
2022-09-09T07:04:28.322Z,23.90
2022-09-09T07:07:16.755Z,24.30
2022-09-09T07:10:08.538Z,24.30
2022-09-09T07:12:58.554Z,24.50
2022-09-09T07:15:47.801Z,24.60
2022-09-09T07:18:36.639Z,24.70
2022-09-09T07:21:25.430Z,24.70
2022-09-09T07:24:14.115Z,24.70
2022-09-09T07:27:06.776Z,24.60
2022-09-09T07:29:55.790Z,24.60
2022-09-09T07:32:44.270Z,24.70
2022-09-09T07:35:32.793Z,24.80
2022-09-09T07:38:21.288Z,24.80
2022-09-09T07:41:12.768Z,24.80
2022-09-09T07:44:06.126Z,24.80
2022-09-09T07:46:54.787Z,24.70
2022-09-09T07:49:50.689Z,24.70
2022-09-09T07:52:43.518Z,24.60
2022-09-09T07:55:33.089Z,24.50
2022-09-09T07:58:21.597Z,24.40
2022-09-09T08:01:13.830Z,24.20
2022-09-09T08:04:04.153Z,24.00
2022-09-09T08:06:55.107Z,23.80
2022-09-09T08:09:45.221Z,23.70
2022-09-09T08:13:14.665Z,23.60
2022-09-09T08:16:09.420Z,23.60
2022-09-09T08:18:59.895Z,23.50
2022-09-09T08:21:49.950Z,23.50
2022-09-09T08:24:38.714Z,23.40
2022-09-09T08:27:27.430Z,23.40
2022-09-09T08:30:17.348Z,23.30
2022-09-09T08:33:06.273Z,23.20
2022-09-09T08:35:57.283Z,23.20
2022-09-09T08:38:46.304Z,23.10
2022-09-09T08:42:07.515Z,23.00
2022-09-09T08:45:22.715Z,22.90
2022-09-09T08:48:20.844Z,22.80
2022-09-09T08:51:12.117Z,22.70
2022-09-09T08:54:03.191Z,22.60
2022-09-09T08:56:51.908Z,22.60
2022-09-09T08:59:40.327Z,22.60
2022-09-09T09:02:33.694Z,22.60
2022-09-09T09:05:27.076Z,22.60
2022-09-09T09:08:22.591Z,22.60
2022-09-09T09:11:11.093Z,22.60
2022-09-09T09:14:02.699Z,22.60
2022-09-09T09:16:54.616Z,22.60
2022-09-09T09:19:44.160Z,22.60
2022-09-09T09:22:39.262Z,22.70
2022-09-09T09:25:34.073Z,22.80
2022-09-09T09:28:25.334Z,22.90
2022-09-09T09:31:18.590Z,23.00
2022-09-09T09:34:11.164Z,23.10
2022-09-09T09:37:02.673Z,23.20
2022-09-09T09:40:08.786Z,23.30
2022-09-09T09:43:00.362Z,23.50
2022-09-09T09:46:06.990Z,23.60
2022-09-09T09:49:01.816Z,23.80
2022-09-09T09:51:51.110Z,23.90
2022-09-09T09:54:40.815Z,24.00
2022-09-09T09:57:32.766Z,24.00
2022-09-09T10:00:27.326Z,24.00
2022-09-09T10:03:27.518Z,24.00
2022-09-09T10:06:16.765Z,23.90
2022-09-09T10:09:08.666Z,23.80
2022-09-09T10:12:04.736Z,23.70
2022-09-09T10:14:57.902Z,23.50
2022-09-09T10:17:56.881Z,23.40
2022-09-09T10:20:47.873Z,23.30
2022-09-09T10:23:54.928Z,23.20
2022-09-09T10:26:48.296Z,23.00
2022-09-09T10:29:51.475Z,22.90
2022-09-09T10:32:50.680Z,22.80
2022-09-09T10:35:43.563Z,22.70
2022-09-09T10:38:34.429Z,22.70
2022-09-09T10:41:33.339Z,22.70
2022-09-09T10:44:40.665Z,22.70
2022-09-09T10:48:12.554Z,22.80
2022-09-09T10:51:15.536Z,23.00
2022-09-09T10:54:19.920Z,23.30
2022-09-09T10:57:15.719Z,23.50
2022-09-09T11:00:07.052Z,23.80
2022-09-09T11:02:58.215Z,24.10
2022-09-09T11:05:48.422Z,24.40
2022-09-09T11:08:40.605Z,24.80
2022-09-09T11:11:32.807Z,25.10
2022-09-09T11:14:25.467Z,25.40
2022-09-09T11:17:16.089Z,25.60
2022-09-09T11:20:04.976Z,25.70
2022-09-09T11:22:55.037Z,25.80
2022-09-09T11:25:46.239Z,25.80
2022-09-09T11:28:45.598Z,25.90
2022-09-09T11:31:46.606Z,26.00
2022-09-09T11:34:41.779Z,26.00
2022-09-09T11:37:56.144Z,26.10
2022-09-09T11:40:45.944Z,26.10
2022-09-09T11:43:39.436Z,26.10
2022-09-09T11:46:36.357Z,26.10
2022-09-09T11:49:29.986Z,26.10
2022-09-09T11:52:26.584Z,26.00
2022-09-09T11:55:27.966Z,26.00
2022-09-09T11:58:20.304Z,25.80
2022-09-09T12:01:32.031Z,25.80
2022-09-09T12:04:35.032Z,25.70
2022-09-09T12:07:31.362Z,25.60
2022-09-09T12:10:24.484Z,25.40
2022-09-09T12:13:22.870Z,25.30
2022-09-09T12:16:34.858Z,25.20
2022-09-09T12:19:26.473Z,25.20
2022-09-09T12:22:23.118Z,25.10
2022-09-09T12:25:23.173Z,25.00
2022-09-09T12:28:14.267Z,24.90
2022-09-09T12:31:08.903Z,24.80
2022-09-09T12:33:57.392Z,24.70
2022-09-09T12:36:51.847Z,24.60
2022-09-09T12:39:46.623Z,24.60
2022-09-09T12:42:39.152Z,24.50
2022-09-09T12:45:32.256Z,24.30
2022-09-09T12:48:22.205Z,24.10
2022-09-09T12:51:20.478Z,23.80
2022-09-09T12:54:15.006Z,23.60
2022-09-09T12:57:04.295Z,23.40
2022-09-09T12:59:53.733Z,23.10
2022-09-09T13:02:52.699Z,22.90
2022-09-09T13:05:44.308Z,22.80
2022-09-09T13:08:32.713Z,22.70
2022-09-09T13:11:23.412Z,22.70
2022-09-09T13:14:21.210Z,22.70
2022-09-09T13:17:19.507Z,22.80
2022-09-09T13:20:09.476Z,22.80
2022-09-09T13:22:59.384Z,22.90
2022-09-09T13:25:56.059Z,22.90
2022-09-09T13:28:46.325Z,22.50
2022-09-09T13:31:37.889Z,22.80
2022-09-09T13:34:29.889Z,22.60
2022-09-09T13:37:24.428Z,22.60
2022-09-09T13:40:20.436Z,22.40
2022-09-09T13:43:16.472Z,22.30
2022-09-09T13:46:07.074Z,22.20
2022-09-09T13:48:59.159Z,22.10
2022-09-09T13:51:48.911Z,22.00
2022-09-09T13:54:37.253Z,21.90
2022-09-09T13:57:27.201Z,21.80
2022-09-09T14:00:16.778Z,21.80
2022-09-09T14:03:05.409Z,21.90
2022-09-09T14:05:55.217Z,22.00
2022-09-09T14:08:43.679Z,22.10
2022-09-09T14:11:32.077Z,22.20
2022-09-09T14:14:21.820Z,22.30
2022-09-09T14:17:10.170Z,22.40
2022-09-09T14:19:58.606Z,22.50
2022-09-09T14:22:46.985Z,22.60
2022-09-09T14:25:35.452Z,22.80
2022-09-09T14:28:45.132Z,22.90
2022-09-09T14:31:33.644Z,23.10
2022-09-09T14:34:22.018Z,23.30
2022-09-09T14:37:10.400Z,23.50
2022-09-09T14:39:58.804Z,23.60
2022-09-09T14:42:47.251Z,23.80
2022-09-09T14:45:37.343Z,23.90
2022-09-09T14:48:27.174Z,24.10
2022-09-09T14:51:17.278Z,24.10
2022-09-09T14:54:05.942Z,24.20
2022-09-09T14:56:54.397Z,24.20
2022-09-09T14:59:42.755Z,24.20
2022-09-09T15:02:32.303Z,24.30
2022-09-09T15:05:22.091Z,24.30
2022-09-09T15:08:10.433Z,24.30
2022-09-09T15:11:02.351Z,24.20
2022-09-09T15:13:53.075Z,24.20
2022-09-09T15:16:41.855Z,24.10
2022-09-09T15:19:30.217Z,24.00
2022-09-09T15:22:20.048Z,23.90
2022-09-09T15:25:09.623Z,23.80
2022-09-09T15:27:58.217Z,23.60
2022-09-09T15:30:49.569Z,23.50
2022-09-09T15:33:38.773Z,23.30
2022-09-09T15:36:28.094Z,23.10
2022-09-09T15:39:19.205Z,23.00
2022-09-09T15:42:08.003Z,22.90
2022-09-09T15:44:57.740Z,22.70
2022-09-09T15:47:46.234Z,22.60
2022-09-09T15:50:35.635Z,22.50
2022-09-09T15:53:24.072Z,22.30
2022-09-09T15:56:13.798Z,22.20
2022-09-09T15:59:03.145Z,22.10
2022-09-09T16:01:52.149Z,22.00
2022-09-09T16:04:40.783Z,21.90
2022-09-09T16:07:29.137Z,21.80
2022-09-09T16:10:17.569Z,21.70
2022-09-09T16:13:07.267Z,21.60
2022-09-09T16:15:56.445Z,21.50
2022-09-09T16:18:47.194Z,21.40
2022-09-09T16:21:38.533Z,21.30
2022-09-09T16:24:27.670Z,21.30
2022-09-09T16:27:16.152Z,21.20
2022-09-09T16:30:07.377Z,21.10
2022-09-09T16:32:55.780Z,21.00
2022-09-09T16:35:44.140Z,20.90
2022-09-09T16:38:32.708Z,20.90
2022-09-09T16:41:21.064Z,20.90
2022-09-09T16:44:10.775Z,20.80
2022-09-09T16:47:01.227Z,20.70
2022-09-09T16:49:49.778Z,20.70
2022-09-09T16:52:38.092Z,20.70
2022-09-09T16:55:27.647Z,20.60
2022-09-09T16:58:15.972Z,20.60
2022-09-09T17:01:04.583Z,20.60
2022-09-09T17:04:00.656Z,20.60
2022-09-09T17:06:50.195Z,20.50
2022-09-09T17:09:38.522Z,20.50
2022-09-09T17:12:26.864Z,20.50
2022-09-09T17:15:15.998Z,20.40
2022-09-09T17:18:04.423Z,20.30
2022-09-09T17:20:54.545Z,20.30
2022-09-09T17:23:43.226Z,20.10
2022-09-09T17:26:33.980Z,20.00
2022-09-09T17:29:22.357Z,19.90
2022-09-09T17:32:10.712Z,19.80
2022-09-09T17:34:59.081Z,19.80
2022-09-09T17:37:48.918Z,19.70
2022-09-09T17:40:37.257Z,19.60
2022-09-09T17:43:25.617Z,19.50
2022-09-09T17:46:15.545Z,19.40
2022-09-09T17:49:05.715Z,19.30
2022-09-09T17:51:54.866Z,19.20
2022-09-09T17:54:44.535Z,19.20
2022-09-09T17:57:33.039Z,19.10
2022-09-09T18:00:21.503Z,19.00
2022-09-09T18:03:09.896Z,18.90
2022-09-09T18:06:03.098Z,18.80
2022-09-09T18:08:54.500Z,18.80
2022-09-09T18:11:45.352Z,18.80
2022-09-09T18:14:34.967Z,18.80
2022-09-09T18:17:23.309Z,18.70
2022-09-09T18:20:12.073Z,18.70
2022-09-09T18:23:00.447Z,18.70
2022-09-09T18:25:48.842Z,18.80
2022-09-09T18:28:39.514Z,18.80
2022-09-09T18:31:28.792Z,18.90
2022-09-09T18:34:18.567Z,18.90
2022-09-09T18:37:08.386Z,19.00
2022-09-09T18:39:56.748Z,19.10
2022-09-09T18:42:45.217Z,19.10
2022-09-09T18:45:38.699Z,19.20
2022-09-09T18:48:27.062Z,19.20
2022-09-09T18:51:17.174Z,19.20
2022-09-09T18:54:07.813Z,19.30
2022-09-09T18:56:56.115Z,19.30
2022-09-09T18:59:44.481Z,19.40
2022-09-09T19:02:34.104Z,19.40
2022-09-09T19:05:22.493Z,19.40
2022-09-09T19:08:10.813Z,19.20
2022-09-09T19:11:02.473Z,19.40
2022-09-09T19:13:51.640Z,19.40
2022-09-09T19:16:40.515Z,19.40
2022-09-09T19:19:32.220Z,19.40
2022-09-09T19:22:20.588Z,19.30
2022-09-09T19:25:09.196Z,19.30
2022-09-09T19:27:58.372Z,19.20
2022-09-09T19:30:47.704Z,19.20
2022-09-09T19:33:36.312Z,19.10
2022-09-09T19:36:27.572Z,19.10
2022-09-09T19:39:16.391Z,19.00
2022-09-09T19:42:04.863Z,18.90
2022-09-09T19:44:53.168Z,18.90
2022-09-09T19:47:42.745Z,18.90
2022-09-09T19:50:31.104Z,18.90
2022-09-09T19:53:20.931Z,18.80
2022-09-09T19:56:10.220Z,18.80
2022-09-09T19:58:58.637Z,18.80
2022-09-09T20:01:47.066Z,18.80
2022-09-09T20:04:36.198Z,18.70
2022-09-09T20:07:24.571Z,18.70
2022-09-09T20:10:14.334Z,18.70
2022-09-09T20:13:02.652Z,18.70
2022-09-09T20:16:00.352Z,18.70
2022-09-09T20:18:50.813Z,18.60
2022-09-09T20:21:42.824Z,18.60
2022-09-09T20:24:36.900Z,18.50
2022-09-09T20:27:27.566Z,18.50
2022-09-09T20:30:16.009Z,18.40
2022-09-09T20:33:04.878Z,18.40
2022-09-09T20:35:53.858Z,18.40
2022-09-09T20:38:46.377Z,18.30
2022-09-09T20:41:36.083Z,18.30
2022-09-09T20:44:26.270Z,18.30
2022-09-09T20:47:14.613Z,18.30
2022-09-09T20:50:02.948Z,18.40
2022-09-09T20:52:52.341Z,18.40
2022-09-09T20:55:40.706Z,18.40
2022-09-09T20:58:33.526Z,18.40
2022-09-09T21:01:23.435Z,18.50
2022-09-09T21:04:12.379Z,18.40
2022-09-09T21:07:02.532Z,18.40
2022-09-09T21:09:50.931Z,18.40
2022-09-09T21:12:39.397Z,18.40
2022-09-09T21:15:27.709Z,18.40
2022-09-09T21:18:17.541Z,18.30
2022-09-09T21:21:05.901Z,18.30
2022-09-09T21:23:55.872Z,18.30
2022-09-09T21:26:44.230Z,18.30
2022-09-09T21:29:32.598Z,18.30
2022-09-09T21:32:21.367Z,18.40
2022-09-09T21:35:12.054Z,18.40
2022-09-09T21:38:00.379Z,18.50
2022-09-09T21:40:50.116Z,18.50
2022-09-09T21:43:38.428Z,18.50
2022-09-09T21:46:28.208Z,18.50
2022-09-09T21:49:16.594Z,18.50
2022-09-09T21:52:06.336Z,18.50
2022-09-09T21:54:54.683Z,18.60
2022-09-09T21:57:43.052Z,18.60
2022-09-09T22:00:31.629Z,18.60
2022-09-09T22:03:19.950Z,18.70
2022-09-09T22:06:08.857Z,18.70
2022-09-09T22:08:59.074Z,18.80
2022-09-09T22:11:47.461Z,18.80
2022-09-09T22:14:36.655Z,18.80
2022-09-09T22:17:25.441Z,18.90
2022-09-09T22:20:13.918Z,18.90
2022-09-09T22:23:02.491Z,19.00
2022-09-09T22:25:53.714Z,19.00
2022-09-09T22:28:42.042Z,19.00
2022-09-09T22:31:30.520Z,19.10
2022-09-09T22:34:20.939Z,19.10
2022-09-09T22:37:09.984Z,19.10
2022-09-09T22:39:58.340Z,19.10
2022-09-09T22:42:52.423Z,19.20
2022-09-09T22:45:41.981Z,19.20
2022-09-09T22:48:33.486Z,19.20
2022-09-09T22:51:21.835Z,19.20
2022-09-09T22:54:10.218Z,19.30
2022-09-09T22:56:58.575Z,19.30
2022-09-09T22:59:48.266Z,19.30
2022-09-09T23:02:40.688Z,19.40
2022-09-09T23:05:30.124Z,19.30
2022-09-09T23:08:18.950Z,19.40
2022-09-09T23:11:10.631Z,19.40
2022-09-09T23:14:00.535Z,19.40
2022-09-09T23:16:52.577Z,19.40
2022-09-09T23:19:41.486Z,19.40
2022-09-09T23:22:29.910Z,19.40
2022-09-09T23:25:18.447Z,19.30
2022-09-09T23:28:06.820Z,19.30
2022-09-09T23:30:55.672Z,19.30
2022-09-09T23:33:45.716Z,19.30
2022-09-09T23:36:34.136Z,19.30
2022-09-09T23:39:23.156Z,19.30
2022-09-09T23:42:12.126Z,19.30
2022-09-09T23:45:03.270Z,19.30
2022-09-09T23:47:51.750Z,19.30
2022-09-09T23:50:41.490Z,19.20
2022-09-09T23:53:29.850Z,19.20
2022-09-09T23:56:20.280Z,19.20
2022-09-09T23:59:09.056Z,19.20
